Ride Results

Emu Cup @ Toongabbie (17-06-2017)
Ride distance: 100.0 km Elevator

Outcomes - Emu Cup @ Toongabbie (17-06-2017)
Division No. of Entries Retired / DNE Completed Withdrawn Ineligible V/O Percentage Completed
HW 7 2 3 - - 2 71.43%
MW 27 8 10 3 - 6 66.67%
LW 15 8 4 - 1 2 80.00%
JN 8 5 3 - - - 100.00%
Totals 57 23 20 3 1 10 75.44%
Results - Emu Cup @ Toongabbie (17-06-2017)
No. Rider Horse Place Time Leg Speeds Total
Km/Hr
H/R bpm
Heavyweight
315 Matt Milne Shaylen Park Al'Jah'Zure 1 (BC) 6:28:00 13.9, 18.8, 13.4 15.46 37, 47, 52, 57 (Avg:52)
786 Hannah Mitchell Oso Irazu 2 7:06:00 12.9, 28.5, 7.6 14.08 41, 49, 50, 47 (Avg:48)
135 Tamara Atkinson Mathoura McKinlay 3 7:28:00 12.9, 13.2, 14.6 13.39 39, 44, 48, 50 (Avg:47)
167 Bill Verspaandonk Eaglehawk Shiraz Retired/DNE L2 5:24:00 13.7, 15.9 14.81 33, 42, 45 (Avg:43)
312 Kerrie Blank Waitara Triffard Retired/DNE L2 7:10:00 10.6, 11.7 11.16 35, 52, 58 (Avg:55)
18 Ken Bradley Littlebanks Magic Wings Heart Rate L2 0:00:00 13.3, 13.2 - 36, 44, 68 (Avg:56)
225 Harrison Berg Madgwick Rashaqa Lame L1 0:00:00 8.7 - 40, 45 (Avg:45)
Middleweight
244 Marty Bryson Castlebar Shatan 1 (BC) 6:02:00 15.7, 19.6, 13.6 16.57 30, 40, 51, 43 (Avg:44)
794 Tracy-Lee Feltrin Oso Spiralling Wind 1 6:02:00 15.4, 20.1, 13.6 16.57 39, 49, 54, 53 (Avg:52)
776 Daniel Noble El-Masri Sadeek 3 6:16:00 15.5, 17.7, 13.7 15.96 40, 50, 51, 51 (Avg:50)
126 Wendy Riha Castlebar Chivas 4 6:29:00 13.7, 17.1, 16.2 15.42 34, 44, 47, 48 (Avg:46)
23 Brittnee Smith Timbertop Golden Fantasy 5 6:37:00 14.6, 16.1, 14.2 15.11 29, 44, 44, 52 (Avg:46)
168 Trish VanDonk Eminem Phairow 6 6:42:00 13.7, 15.9, 15.3 14.93 33, 44, 42, 47 (Avg:44)
311 Annabelle Jacka Castlebar Baccarat 7 7:01:00 12.0, 16.1, 16.4 14.25 32, 44, 50, 51 (Avg:48)
84 Kristie Taprell Castlebar Belair 7 7:01:00 12.0, 16.1, 16.4 14.25 27, 42, 46, 45 (Avg:44)
13 Linda Tanian Brag Ngood 9 7:06:00 12.9, 16.6, 12.4 14.08 38, 47, 51, 53 (Avg:50)
791 Talea Hasko-Stewart Blake's Heaven Bombora 10 7:29:00 10.8, 16.9, 14.1 13.36 32, 44, 47, 48 (Avg:46)
253 Kerri Hart Temar Shamarra Retired/DNE L2 5:24:00 13.2, 16.7 14.81 26, 46, 48 (Avg:47)
8 Jane McLaughlin Syrahbia Retired/DNE L2 6:14:00 11.5, 14.4 12.83 31, 50, 55 (Avg:52)
262 Bonnie Player Cedarwood Lodge Red Diamond Retired/DNE L2 6:29:00 11.4, 13.3 12.34 43, 42, 42 (Avg:42)
788 Tayla Hadzi AM Reigning Bianca Retired/DNE L2 6:46:00 10.9, 12.8 11.82 35, 47, 52 (Avg:49)
286 Jason Rathbone Blood Moon Retired/DNE L2 6:48:00 10.7, 13.0 11.76 37, 40, 48 (Avg:44)
250 Kerry Alderton Madrigal Park Larbonetta Retired/DNE L2 6:59:00 10.1, 13.1 11.46 46, 40, 52 (Avg:46)
787 Lucy Silinzieds Avianna Park Medusa Retired/DNE L2 7:09:00 9.6, 13.2 11.19 33, 49, 52 (Avg:50)
81 Tarryn Marshall Dara Park Alikhan Retired/DNE L2 7:24:00 9.6, 12.2 10.81 35, 44, 40 (Avg:42)
28 Amily Daw Castlebar Guardian Lame L3 0:00:00 11.5, 17.1, 16.4 - 30, 44, 50, 47 (Avg:47)
333 Pamela Moore Ennerdale Marquis Lame L2 0:00:00 12.9, 13.2 - 34, 43, 47 (Avg:45)
790 Amelia Napier Oso Evita Lame L2 0:00:00 9.6, 9.8 - 32, 40, 45 (Avg:42)
309 Robyn Player Breakaway Image of Marwan Lame L2 0:00:00 11.4, 13.3 - 48, 40, 55 (Avg:47)
291 Kerryn Agnew Performance Park Memphis Rain Withdrawn L1 0:00:00 - - 32, 40 (Avg:40)
172 Michael Cadman A'landell Kwaint Lame L1 0:00:00 13.4 - 35, 45 (Avg:45)
189 Sally Cowan Willabee Park Ackwell Heart Rate L1 0:00:00 10.3 - 38, 59 (Avg:59)
41 Jenny Moncur Salz Bossy Boots Withdrawn L1 0:00:00 - - 60, 39 (Avg:39)
195 Nikita Verspaandonk Pureheart Fraggle Rock Withdrawn L1 0:00:00 - - 49, 42 (Avg:42)
Lightweight
91 Kim Noble Warrawee Naaziq 1 (BC) 6:15:00 15.5, 17.7, 13.9 16.00 34, 45, 50, 48 (Avg:47)
161 Shannon Decker Cooroora Bold Dancer 2 7:27:00 12.1, 16.5, 11.4 13.42 39, 51, 49, 51 (Avg:50)
782 Monica Ballard Blake's Heaven Carousel 3 8:06:00 10.8, 16.9, 9.8 12.35 34, 43, 46, 42 (Avg:43)
113 Lisa Worden Zintah Odysseus 4 8:47:00 10.9, 13.7, 9.0 11.39 27, 45, 48, 48 (Avg:47)
22 Sarah McLaughlin Tonki Dee Boo Shania Retired/DNE L2 6:14:00 11.5, 14.4 12.83 33, 42, 55 (Avg:48)
331 Felicia Ingram Shamali Mischka Retired/DNE L2 6:29:00 11.8, 12.9 12.34 38, 48, 50 (Avg:49)
283 Jayne Rathbone Blake's Heaven Dawn Treader Retired/DNE L2 6:36:00 10.7, 13.9 12.12 35, 48, 53 (Avg:50)
249 Tammy Woodgate Castlebar Galaxy Retired/DNE L2 6:43:00 10.9, 13.1 11.91 44, 49, 53 (Avg:51)
63 Pamela Cox Aloha Delilah Retired/DNE L2 6:48:00 10.7, 13.0 11.76 31, 42, 58 (Avg:50)
310 Sheryl Symes Harrison F Trucks Gunderkan Retired/DNE L2 6:59:00 10.1, 13.1 11.46 47, 43, 52 (Avg:47)
795 Cherry Cummins Candynae Retired/DNE L2 8:27:00 9.5, 9.3 9.47 36, 48, 56 (Avg:52)
281 Chloe Hubczack Heste Arabique Bobby Dazzler Retired/DNE L2 8:51:00 8.8, 9.2 9.04 40, 47, 52 (Avg:49)
792 Louise Wright Madgwick Diplomatic Lip Lame L3 0:00:00 13.3, 16.4, 14.2 - 42, 54, 56, 54 (Avg:54)
221 Susan Gill Banjywon Bella Lame L2 0:00:00 10.9, 13.1 - 36, 46, 47 (Avg:46)
318 Rebecca Williamson Cougar Swan Chiron Under Novice Time L2 0:00:00 10.9, 14.5 - 43, 47, 49 (Avg:48)
Junior
292 Alison Noble Springridge Elite 1 (BC) 6:16:00 15.5, 17.7, 13.7 15.96 33, 52, 54, 51 (Avg:52)
267 Ella Leehane Tarara Malone 2 7:27:00 12.1, 16.5, 11.4 13.42 40, 39, 50, 47 (Avg:45)
777 Celia Hodgson Blake's Heaven Summer Reign 3 7:29:00 10.8, 16.9, 14.1 13.36 35, 40, 50, 48 (Avg:46)
793 Hannah Cossor Future Dream Gypsy Retired/DNE L2 6:46:00 10.9, 12.8 11.82 43, 45, 46 (Avg:45)
784 Zoe Rathbone Blake's Heaven Sunkissed Retired/DNE L2 6:48:00 10.7, 13.0 11.76 44, 43, 44 (Avg:43)
779 Taylah Nikolic Chelleason Bey Justynn Retired/DNE L2 7:51:00 8.8, 12.0 10.19 32, 50, 50 (Avg:50)
785 Kody Dertell Windcharm LEA Retired/DNE L2 8:09:00 9.6, 9.9 9.82 48, 50, 50 (Avg:50)
778 Jessica Dertell Prince Charming FF Retired/DNE L2 8:09:00 9.6, 9.9 9.82 38, 54, 43 (Avg:48)